Terminal Aerodrome Forecast
Issued by NWS

Home | Current Version | Previous Version | Text Only | Print | Product List | Glossary On
Versions: 1 2 3 4 5 6 7 8 9 10 11 12 13
561
FTUS45 KRIW 161725
TAFBPI
TAF
KBPI 161725Z 1618/1718 20022G32KT P6SM SCT060 SCT100
     FM162000 23030G42KT P6SM SCT060 SCT100
     FM170000 24022G32KT P6SM SCT050 BKN090
     FM170300 33020G30KT P6SM SCT050 BKN090
     FM170900 33015KT P6SM VCSH BKN060=

USA.gov is the U.S. government's official web portal to all federal, state and local government web resources and services.